sensor_id;sensor_type;location;lat;lon;timestamp;P1;durP1;ratioP1;P2;durP2;ratioP2
28166;SDS011;15455;53.376;-6.262;2023-03-26T00:01:25;12.85;;;4.03;;
28166;SDS011;15455;53.376;-6.262;2023-03-26T00:04:14;23.27;;;4.55;;
28166;SDS011;15455;53.376;-6.262;2023-03-26T00:07:03;22.42;;;4.38;;
28166;SDS011;15455;53.376;-6.262;2023-03-26T00:09:49;17.80;;;4.03;;
28166;SDS011;15455;53.376;-6.262;2023-03-26T00:12:34;18.90;;;3.50;;
28166;SDS011;15455;53.376;-6.262;2023-03-26T00:15:20;18.73;;;4.35;;
28166;SDS011;15455;53.376;-6.262;2023-03-26T00:18:05;28.33;;;4.93;;
28166;SDS011;15455;53.376;-6.262;2023-03-26T00:20:53;33.38;;;5.20;;
28166;SDS011;15455;53.376;-6.262;2023-03-26T00:23:38;28.42;;;4.28;;
28166;SDS011;15455;53.376;-6.262;2023-03-26T00:26:26;32.35;;;5.28;;
28166;SDS011;15455;53.376;-6.262;2023-03-26T00:29:14;35.05;;;4.63;;
28166;SDS011;15455;53.376;-6.262;2023-03-26T00:32:01;29.30;;;4.45;;
28166;SDS011;15455;53.376;-6.262;2023-03-26T00:34:46;28.33;;;4.18;;
28166;SDS011;15455;53.376;-6.262;2023-03-26T00:37:32;34.97;;;3.88;;
28166;SDS011;15455;53.376;-6.262;2023-03-26T00:40:18;29.48;;;4.43;;
28166;SDS011;15455;53.376;-6.262;2023-03-26T00:43:03;29.15;;;4.53;;
28166;SDS011;15455;53.376;-6.262;2023-03-26T00:46:02;48.30;;;4.35;;
28166;SDS011;15455;53.376;-6.262;2023-03-26T00:48:48;27.90;;;4.18;;
28166;SDS011;15455;53.376;-6.262;2023-03-26T00:51:34;36.25;;;3.95;;
28166;SDS011;15455;53.376;-6.262;2023-03-26T00:54:21;33.53;;;4.30;;
28166;SDS011;15455;53.376;-6.262;2023-03-26T00:57:07;22.50;;;3.30;;
28166;SDS011;15455;53.376;-6.262;2023-03-26T00:59:55;36.08;;;4.57;;
28166;SDS011;15455;53.376;-6.262;2023-03-26T01:02:40;23.38;;;3.80;;
28166;SDS011;15455;53.376;-6.262;2023-03-26T01:05:37;39.95;;;4.10;;
28166;SDS011;15455;53.376;-6.262;2023-03-26T01:08:37;36.38;;;3.72;;
28166;SDS011;15455;53.376;-6.262;2023-03-26T01:11:27;39.80;;;4.47;;
28166;SDS011;15455;53.376;-6.262;2023-03-26T01:14:16;42.60;;;3.55;;
28166;SDS011;15455;53.376;-6.262;2023-03-26T01:17:05;31.88;;;2.95;;
28166;SDS011;15455;53.376;-6.262;2023-03-26T01:22:51;39.53;;;4.03;;
28166;SDS011;15455;53.376;-6.262;2023-03-26T01:25:43;26.05;;;3.60;;
28166;SDS011;15455;53.376;-6.262;2023-03-26T01:28:35;40.50;;;3.38;;
28166;SDS011;15455;53.376;-6.262;2023-03-26T01:31:32;24.00;;;2.47;;
28166;SDS011;15455;53.376;-6.262;2023-03-26T01:41:13;18.30;;;3.47;;
28166;SDS011;15455;53.376;-6.262;2023-03-26T01:44:09;26.75;;;3.30;;
28166;SDS011;15455;53.376;-6.262;2023-03-26T01:46:59;28.05;;;3.47;;
28166;SDS011;15455;53.376;-6.262;2023-03-26T01:49:45;21.60;;;3.53;;
28166;SDS011;15455;53.376;-6.262;2023-03-26T01:52:32;28.45;;;3.53;;
28166;SDS011;15455;53.376;-6.262;2023-03-26T01:55:18;17.00;;;2.97;;
28166;SDS011;15455;53.376;-6.262;2023-03-26T01:58:19;21.85;;;2.55;;
28166;SDS011;15455;53.376;-6.262;2023-03-26T02:04:20;20.85;;;3.33;;
28166;SDS011;15455;53.376;-6.262;2023-03-26T02:07:41;36.55;;;4.13;;
28166;SDS011;15455;53.376;-6.262;2023-03-26T02:10:25;18.88;;;3.40;;
28166;SDS011;15455;53.376;-6.262;2023-03-26T02:13:13;16.90;;;2.47;;
28166;SDS011;15455;53.376;-6.262;2023-03-26T02:16:00;20.92;;;3.15;;
28166;SDS011;15455;53.376;-6.262;2023-03-26T02:18:47;17.67;;;2.47;;
28166;SDS011;15455;53.376;-6.262;2023-03-26T02:21:35;25.13;;;3.55;;
28166;SDS011;15455;53.376;-6.262;2023-03-26T02:24:21;22.35;;;2.70;;
28166;SDS011;15455;53.376;-6.262;2023-03-26T02:27:12;26.23;;;3.28;;
28166;SDS011;15455;53.376;-6.262;2023-03-26T02:29:57;24.13;;;2.92;;
28166;SDS011;15455;53.376;-6.262;2023-03-26T02:32:43;36.13;;;3.63;;
28166;SDS011;15455;53.376;-6.262;2023-03-26T02:35:29;16.08;;;2.35;;
28166;SDS011;15455;53.376;-6.262;2023-03-26T02:38:17;33.03;;;3.28;;
28166;SDS011;15455;53.376;-6.262;2023-03-26T02:41:03;23.65;;;2.70;;
28166;SDS011;15455;53.376;-6.262;2023-03-26T02:44:05;11.50;;;2.58;;
28166;SDS011;15455;53.376;-6.262;2023-03-26T02:47:27;27.00;;;2.55;;
28166;SDS011;15455;53.376;-6.262;2023-03-26T02:50:35;18.73;;;3.15;;
28166;SDS011;15455;53.376;-6.262;2023-03-26T02:53:39;27.45;;;2.83;;
28166;SDS011;15455;53.376;-6.262;2023-03-26T02:56:44;20.25;;;2.88;;
28166;SDS011;15455;53.376;-6.262;2023-03-26T02:59:38;23.15;;;3.13;;
28166;SDS011;15455;53.376;-6.262;2023-03-26T03:02:56;16.35;;;2.42;;
28166;SDS011;15455;53.376;-6.262;2023-03-26T03:05:55;26.13;;;2.88;;
28166;SDS011;15455;53.376;-6.262;2023-03-26T03:08:48;15.80;;;3.22;;
28166;SDS011;15455;53.376;-6.262;2023-03-26T03:11:34;26.08;;;2.70;;
28166;SDS011;15455;53.376;-6.262;2023-03-26T03:14:20;20.38;;;3.17;;
28166;SDS011;15455;53.376;-6.262;2023-03-26T03:17:05;26.85;;;5.07;;
28166;SDS011;15455;53.376;-6.262;2023-03-26T03:19:50;16.25;;;3.72;;
28166;SDS011;15455;53.376;-6.262;2023-03-26T03:22:36;22.88;;;3.38;;
28166;SDS011;15455;53.376;-6.262;2023-03-26T03:25:22;27.77;;;4.00;;
28166;SDS011;15455;53.376;-6.262;2023-03-26T03:28:08;26.50;;;4.35;;
28166;SDS011;15455;53.376;-6.262;2023-03-26T03:30:53;20.48;;;4.70;;
28166;SDS011;15455;53.376;-6.262;2023-03-26T03:33:49;21.27;;;4.40;;
28166;SDS011;15455;53.376;-6.262;2023-03-26T03:36:35;22.27;;;4.63;;
28166;SDS011;15455;53.376;-6.262;2023-03-26T03:39:42;25.52;;;4.38;;
28166;SDS011;15455;53.376;-6.262;2023-03-26T03:42:31;16.77;;;3.88;;
28166;SDS011;15455;53.376;-6.262;2023-03-26T03:45:19;31.92;;;5.05;;
28166;SDS011;15455;53.376;-6.262;2023-03-26T03:48:37;30.05;;;5.07;;
28166;SDS011;15455;53.376;-6.262;2023-03-26T03:51:25;29.40;;;5.50;;
28166;SDS011;15455;53.376;-6.262;2023-03-26T03:54:14;24.88;;;5.22;;
28166;SDS011;15455;53.376;-6.262;2023-03-26T03:57:02;46.22;;;5.93;;
28166;SDS011;15455;53.376;-6.262;2023-03-26T03:59:57;42.25;;;6.22;;
28166;SDS011;15455;53.376;-6.262;2023-03-26T04:02:48;29.08;;;5.10;;
28166;SDS011;15455;53.376;-6.262;2023-03-26T04:05:34;24.17;;;5.50;;
28166;SDS011;15455;53.376;-6.262;2023-03-26T04:08:20;31.95;;;5.32;;
28166;SDS011;15455;53.376;-6.262;2023-03-26T04:11:13;21.60;;;4.18;;
28166;SDS011;15455;53.376;-6.262;2023-03-26T04:14:25;18.33;;;4.03;;
28166;SDS011;15455;53.376;-6.262;2023-03-26T04:17:15;20.80;;;3.05;;
28166;SDS011;15455;53.376;-6.262;2023-03-26T04:20:03;24.30;;;3.63;;
28166;SDS011;15455;53.376;-6.262;2023-03-26T04:22:50;20.65;;;3.30;;
28166;SDS011;15455;53.376;-6.262;2023-03-26T04:25:42;21.65;;;3.92;;
28166;SDS011;15455;53.376;-6.262;2023-03-26T04:28:46;31.38;;;4.65;;
28166;SDS011;15455;53.376;-6.262;2023-03-26T04:31:40;21.23;;;4.25;;
28166;SDS011;15455;53.376;-6.262;2023-03-26T04:34:29;18.63;;;4.13;;
28166;SDS011;15455;53.376;-6.262;2023-03-26T04:37:40;21.73;;;3.75;;
28166;SDS011;15455;53.376;-6.262;2023-03-26T04:40:32;20.27;;;3.38;;
28166;SDS011;15455;53.376;-6.262;2023-03-26T04:43:29;17.50;;;3.95;;
28166;SDS011;15455;53.376;-6.262;2023-03-26T04:46:15;27.08;;;3.45;;
28166;SDS011;15455;53.376;-6.262;2023-03-26T04:49:18;24.13;;;3.28;;
28166;SDS011;15455;53.376;-6.262;2023-03-26T04:52:03;26.85;;;3.08;;
28166;SDS011;15455;53.376;-6.262;2023-03-26T04:55:15;31.95;;;4.57;;
28166;SDS011;15455;53.376;-6.262;2023-03-26T04:58:18;24.27;;;2.67;;
28166;SDS011;15455;53.376;-6.262;2023-03-26T05:01:13;24.63;;;2.83;;
28166;SDS011;15455;53.376;-6.262;2023-03-26T05:04:02;16.70;;;4.07;;
28166;SDS011;15455;53.376;-6.262;2023-03-26T05:06:48;21.67;;;2.78;;
28166;SDS011;15455;53.376;-6.262;2023-03-26T05:09:40;31.08;;;2.70;;
28166;SDS011;15455;53.376;-6.262;2023-03-26T05:12:31;14.63;;;2.85;;
28166;SDS011;15455;53.376;-6.262;2023-03-26T05:15:21;28.77;;;2.30;;
28166;SDS011;15455;53.376;-6.262;2023-03-26T05:18:07;28.88;;;2.85;;
28166;SDS011;15455;53.376;-6.262;2023-03-26T05:20:56;22.48;;;3.42;;
28166;SDS011;15455;53.376;-6.262;2023-03-26T05:23:43;22.52;;;2.78;;
28166;SDS011;15455;53.376;-6.262;2023-03-26T05:26:35;16.73;;;2.30;;
28166;SDS011;15455;53.376;-6.262;2023-03-26T05:29:21;18.30;;;2.35;;
28166;SDS011;15455;53.376;-6.262;2023-03-26T05:32:10;32.13;;;3.35;;
28166;SDS011;15455;53.376;-6.262;2023-03-26T05:34:57;16.67;;;2.65;;
28166;SDS011;15455;53.376;-6.262;2023-03-26T05:37:43;27.80;;;3.70;;
28166;SDS011;15455;53.376;-6.262;2023-03-26T05:40:37;31.13;;;2.97;;
28166;SDS011;15455;53.376;-6.262;2023-03-26T05:43:23;37.67;;;3.65;;
28166;SDS011;15455;53.376;-6.262;2023-03-26T05:46:18;26.13;;;3.58;;
28166;SDS011;15455;53.376;-6.262;2023-03-26T05:49:06;32.17;;;3.28;;
28166;SDS011;15455;53.376;-6.262;2023-03-26T05:51:53;19.17;;;2.83;;
28166;SDS011;15455;53.376;-6.262;2023-03-26T05:55:15;19.48;;;3.10;;
28166;SDS011;15455;53.376;-6.262;2023-03-26T05:58:21;25.42;;;2.83;;
28166;SDS011;15455;53.376;-6.262;2023-03-26T06:01:25;26.48;;;3.33;;
28166;SDS011;15455;53.376;-6.262;2023-03-26T06:04:29;25.42;;;3.17;;
28166;SDS011;15455;53.376;-6.262;2023-03-26T06:07:34;16.83;;;3.38;;
28166;SDS011;15455;53.376;-6.262;2023-03-26T06:10:40;23.23;;;2.58;;
28166;SDS011;15455;53.376;-6.262;2023-03-26T06:13:26;31.75;;;3.05;;
28166;SDS011;15455;53.376;-6.262;2023-03-26T06:16:13;35.90;;;3.55;;
28166;SDS011;15455;53.376;-6.262;2023-03-26T06:19:29;28.30;;;3.55;;
28166;SDS011;15455;53.376;-6.262;2023-03-26T06:22:22;30.90;;;5.45;;
28166;SDS011;15455;53.376;-6.262;2023-03-26T06:25:31;22.17;;;4.03;;
28166;SDS011;15455;53.376;-6.262;2023-03-26T06:28:45;17.27;;;5.10;;
28166;SDS011;15455;53.376;-6.262;2023-03-26T06:31:50;20.38;;;4.53;;
28166;SDS011;15455;53.376;-6.262;2023-03-26T06:34:40;31.35;;;4.75;;
28166;SDS011;15455;53.376;-6.262;2023-03-26T06:37:26;15.35;;;4.40;;
28166;SDS011;15455;53.376;-6.262;2023-03-26T06:40:18;21.90;;;5.03;;
28166;SDS011;15455;53.376;-6.262;2023-03-26T06:43:25;28.88;;;5.85;;
28166;SDS011;15455;53.376;-6.262;2023-03-26T06:46:26;27.25;;;4.65;;
28166;SDS011;15455;53.376;-6.262;2023-03-26T06:49:30;18.77;;;4.90;;
28166;SDS011;15455;53.376;-6.262;2023-03-26T06:52:45;15.15;;;4.10;;
28166;SDS011;15455;53.376;-6.262;2023-03-26T06:55:49;24.13;;;4.72;;
28166;SDS011;15455;53.376;-6.262;2023-03-26T06:58:40;16.80;;;3.78;;
28166;SDS011;15455;53.376;-6.262;2023-03-26T07:01:44;20.27;;;4.40;;
28166;SDS011;15455;53.376;-6.262;2023-03-26T07:04:49;21.80;;;4.68;;
28166;SDS011;15455;53.376;-6.262;2023-03-26T07:08:01;29.73;;;6.75;;
28166;SDS011;15455;53.376;-6.262;2023-03-26T07:11:06;17.13;;;5.13;;
28166;SDS011;15455;53.376;-6.262;2023-03-26T07:14:23;16.75;;;4.57;;
28166;SDS011;15455;53.376;-6.262;2023-03-26T07:17:31;18.17;;;4.60;;
28166;SDS011;15455;53.376;-6.262;2023-03-26T07:20:28;27.30;;;5.45;;
28166;SDS011;15455;53.376;-6.262;2023-03-26T07:23:14;16.65;;;4.30;;
28166;SDS011;15455;53.376;-6.262;2023-03-26T07:29:36;18.92;;;4.35;;
28166;SDS011;15455;53.376;-6.262;2023-03-26T07:33:00;19.17;;;3.78;;
28166;SDS011;15455;53.376;-6.262;2023-03-26T07:46:03;16.48;;;3.90;;
28166;SDS011;15455;53.376;-6.262;2023-03-26T07:49:11;11.18;;;3.42;;
28166;SDS011;15455;53.376;-6.262;2023-03-26T07:52:17;21.13;;;4.03;;
28166;SDS011;15455;53.376;-6.262;2023-03-26T07:55:15;16.85;;;3.50;;
28166;SDS011;15455;53.376;-6.262;2023-03-26T08:05:29;14.93;;;3.70;;
28166;SDS011;15455;53.376;-6.262;2023-03-26T08:12:35;18.63;;;3.90;;
28166;SDS011;15455;53.376;-6.262;2023-03-26T08:15:38;23.02;;;4.68;;
28166;SDS011;15455;53.376;-6.262;2023-03-26T08:21:25;13.52;;;4.30;;
28166;SDS011;15455;53.376;-6.262;2023-03-26T08:27:15;10.35;;;3.40;;
28166;SDS011;15455;53.376;-6.262;2023-03-26T08:30:13;20.80;;;4.13;;
28166;SDS011;15455;53.376;-6.262;2023-03-26T08:33:13;15.63;;;4.13;;
28166;SDS011;15455;53.376;-6.262;2023-03-26T08:36:03;16.90;;;3.38;;
28166;SDS011;15455;53.376;-6.262;2023-03-26T08:38:48;14.82;;;3.17;;
28166;SDS011;15455;53.376;-6.262;2023-03-26T08:47:51;11.63;;;2.22;;
28166;SDS011;15455;53.376;-6.262;2023-03-26T09:25:11;9.68;;;3.08;;
28166;SDS011;15455;53.376;-6.262;2023-03-26T09:28:07;33.58;;;3.67;;
28166;SDS011;15455;53.376;-6.262;2023-03-26T09:34:38;11.98;;;3.65;;
28166;SDS011;15455;53.376;-6.262;2023-03-26T09:56:28;12.93;;;2.58;;
28166;SDS011;15455;53.376;-6.262;2023-03-26T09:59:48;11.10;;;2.20;;
28166;SDS011;15455;53.376;-6.262;2023-03-26T10:12:23;16.65;;;2.33;;
28166;SDS011;15455;53.376;-6.262;2023-03-26T10:15:25;17.30;;;2.38;;
28166;SDS011;15455;53.376;-6.262;2023-03-26T10:18:36;9.23;;;1.80;;
28166;SDS011;15455;53.376;-6.262;2023-03-26T10:21:37;10.60;;;1.92;;
28166;SDS011;15455;53.376;-6.262;2023-03-26T10:40:27;17.08;;;3.40;;
28166;SDS011;15455;53.376;-6.262;2023-03-26T10:53:17;9.25;;;1.52;;
28166;SDS011;15455;53.376;-6.262;2023-03-26T10:59:31;8.20;;;1.95;;
28166;SDS011;15455;53.376;-6.262;2023-03-26T11:02:28;16.27;;;2.70;;
28166;SDS011;15455;53.376;-6.262;2023-03-26T11:08:27;24.42;;;3.17;;
28166;SDS011;15455;53.376;-6.262;2023-03-26T11:20:39;19.08;;;2.45;;
28166;SDS011;15455;53.376;-6.262;2023-03-26T11:26:24;6.03;;;1.88;;
28166;SDS011;15455;53.376;-6.262;2023-03-26T11:32:33;12.00;;;2.70;;
28166;SDS011;15455;53.376;-6.262;2023-03-26T11:35:27;16.35;;;2.60;;
28166;SDS011;15455;53.376;-6.262;2023-03-26T11:41:47;11.55;;;1.90;;
28166;SDS011;15455;53.376;-6.262;2023-03-26T11:44:55;15.70;;;2.42;;
28166;SDS011;15455;53.376;-6.262;2023-03-26T11:47:49;16.83;;;2.92;;
28166;SDS011;15455;53.376;-6.262;2023-03-26T11:50:41;17.65;;;2.17;;
28166;SDS011;15455;53.376;-6.262;2023-03-26T11:53:32;13.98;;;2.25;;
28166;SDS011;15455;53.376;-6.262;2023-03-26T11:56:24;14.52;;;2.33;;
28166;SDS011;15455;53.376;-6.262;2023-03-26T11:59:15;9.82;;;2.75;;
28166;SDS011;15455;53.376;-6.262;2023-03-26T12:05:12;17.23;;;3.20;;
28166;SDS011;15455;53.376;-6.262;2023-03-26T12:07:58;14.48;;;2.78;;
28166;SDS011;15455;53.376;-6.262;2023-03-26T12:10:50;17.80;;;3.30;;
28166;SDS011;15455;53.376;-6.262;2023-03-26T12:13:52;13.75;;;2.25;;
28166;SDS011;15455;53.376;-6.262;2023-03-26T12:16:59;12.57;;;2.03;;
28166;SDS011;15455;53.376;-6.262;2023-03-26T12:19:47;16.88;;;2.22;;
28166;SDS011;15455;53.376;-6.262;2023-03-26T12:22:37;9.68;;;1.77;;
28166;SDS011;15455;53.376;-6.262;2023-03-26T12:25:28;18.42;;;2.40;;
28166;SDS011;15455;53.376;-6.262;2023-03-26T12:28:17;13.88;;;2.85;;
28166;SDS011;15455;53.376;-6.262;2023-03-26T12:31:04;8.80;;;2.53;;
28166;SDS011;15455;53.376;-6.262;2023-03-26T12:34:12;11.02;;;2.25;;
28166;SDS011;15455;53.376;-6.262;2023-03-26T12:37:00;10.20;;;1.55;;
28166;SDS011;15455;53.376;-6.262;2023-03-26T12:39:47;8.93;;;1.58;;
28166;SDS011;15455;53.376;-6.262;2023-03-26T12:42:56;11.15;;;1.67;;
28166;SDS011;15455;53.376;-6.262;2023-03-26T12:46:18;13.60;;;2.20;;
28166;SDS011;15455;53.376;-6.262;2023-03-26T12:49:31;14.70;;;2.50;;
28166;SDS011;15455;53.376;-6.262;2023-03-26T13:20:07;11.02;;;1.80;;
28166;SDS011;15455;53.376;-6.262;2023-03-26T13:23:13;9.15;;;1.73;;
28166;SDS011;15455;53.376;-6.262;2023-03-26T13:32:53;9.20;;;1.58;;
28166;SDS011;15455;53.376;-6.262;2023-03-26T13:51:43;8.27;;;1.50;;
28166;SDS011;15455;53.376;-6.262;2023-03-26T13:54:54;11.98;;;1.17;;
28166;SDS011;15455;53.376;-6.262;2023-03-26T13:57:53;7.93;;;0.93;;
28166;SDS011;15455;53.376;-6.262;2023-03-26T14:00:48;11.80;;;2.10;;
28166;SDS011;15455;53.376;-6.262;2023-03-26T14:34:07;11.30;;;2.63;;
28166;SDS011;15455;53.376;-6.262;2023-03-26T14:53:05;3.78;;;1.50;;
28166;SDS011;15455;53.376;-6.262;2023-03-26T15:05:21;9.82;;;1.52;;
28166;SDS011;15455;53.376;-6.262;2023-03-26T15:15:29;13.50;;;1.80;;
28166;SDS011;15455;53.376;-6.262;2023-03-26T15:18:53;2.67;;;1.40;;
28166;SDS011;15455;53.376;-6.262;2023-03-26T15:40:33;8.45;;;1.55;;
28166;SDS011;15455;53.376;-6.262;2023-03-26T15:43:30;9.07;;;1.58;;
28166;SDS011;15455;53.376;-6.262;2023-03-26T15:53:59;14.75;;;2.30;;
28166;SDS011;15455;53.376;-6.262;2023-03-26T16:00:05;17.70;;;2.70;;
28166;SDS011;15455;53.376;-6.262;2023-03-26T16:03:13;13.32;;;2.72;;
28166;SDS011;15455;53.376;-6.262;2023-03-26T16:10:22;17.75;;;3.65;;
28166;SDS011;15455;53.376;-6.262;2023-03-26T16:22:10;8.65;;;2.05;;
28166;SDS011;15455;53.376;-6.262;2023-03-26T16:34:24;6.40;;;2.00;;
28166;SDS011;15455;53.376;-6.262;2023-03-26T16:40:26;9.80;;;1.52;;
28166;SDS011;15455;53.376;-6.262;2023-03-26T16:46:32;11.10;;;2.50;;
28166;SDS011;15455;53.376;-6.262;2023-03-26T16:49:23;8.25;;;1.38;;
28166;SDS011;15455;53.376;-6.262;2023-03-26T17:04:17;7.82;;;2.20;;
28166;SDS011;15455;53.376;-6.262;2023-03-26T17:07:23;11.25;;;2.65;;
28166;SDS011;15455;53.376;-6.262;2023-03-26T17:13:31;8.85;;;2.20;;
28166;SDS011;15455;53.376;-6.262;2023-03-26T17:16:43;13.90;;;3.45;;
28166;SDS011;15455;53.376;-6.262;2023-03-26T17:22:59;12.63;;;3.15;;
28166;SDS011;15455;53.376;-6.262;2023-03-26T17:29:25;11.13;;;3.17;;
28166;SDS011;15455;53.376;-6.262;2023-03-26T17:32:17;18.67;;;2.45;;
28166;SDS011;15455;53.376;-6.262;2023-03-26T17:35:06;10.15;;;1.70;;
28166;SDS011;15455;53.376;-6.262;2023-03-26T17:37:53;18.40;;;3.97;;
28166;SDS011;15455;53.376;-6.262;2023-03-26T17:46:40;9.73;;;2.72;;
28166;SDS011;15455;53.376;-6.262;2023-03-26T17:49:32;15.82;;;4.00;;
28166;SDS011;15455;53.376;-6.262;2023-03-26T17:52:21;13.55;;;3.38;;
28166;SDS011;15455;53.376;-6.262;2023-03-26T17:55:11;11.05;;;3.20;;
28166;SDS011;15455;53.376;-6.262;2023-03-26T17:58:06;12.20;;;3.15;;
28166;SDS011;15455;53.376;-6.262;2023-03-26T18:01:31;8.65;;;2.25;;
28166;SDS011;15455;53.376;-6.262;2023-03-26T18:04:30;6.07;;;2.33;;
28166;SDS011;15455;53.376;-6.262;2023-03-26T18:16:47;6.53;;;2.15;;
28166;SDS011;15455;53.376;-6.262;2023-03-26T18:19:48;11.65;;;2.67;;
28166;SDS011;15455;53.376;-6.262;2023-03-26T18:22:38;11.63;;;2.83;;
28166;SDS011;15455;53.376;-6.262;2023-03-26T18:25:28;13.25;;;3.15;;
28166;SDS011;15455;53.376;-6.262;2023-03-26T18:28:18;11.65;;;3.35;;
28166;SDS011;15455;53.376;-6.262;2023-03-26T18:31:15;10.05;;;3.05;;
28166;SDS011;15455;53.376;-6.262;2023-03-26T18:34:05;17.38;;;3.30;;
28166;SDS011;15455;53.376;-6.262;2023-03-26T18:39:56;23.20;;;9.10;;
28166;SDS011;15455;53.376;-6.262;2023-03-26T18:42:55;14.00;;;3.40;;
28166;SDS011;15455;53.376;-6.262;2023-03-26T18:45:43;11.80;;;2.78;;
28166;SDS011;15455;53.376;-6.262;2023-03-26T18:48:32;18.08;;;2.85;;
28166;SDS011;15455;53.376;-6.262;2023-03-26T18:51:18;10.90;;;2.45;;
28166;SDS011;15455;53.376;-6.262;2023-03-26T18:54:08;9.48;;;2.45;;
28166;SDS011;15455;53.376;-6.262;2023-03-26T18:57:10;12.73;;;2.17;;
28166;SDS011;15455;53.376;-6.262;2023-03-26T19:00:06;12.05;;;1.80;;
28166;SDS011;15455;53.376;-6.262;2023-03-26T19:03:03;9.35;;;1.85;;
28166;SDS011;15455;53.376;-6.262;2023-03-26T19:05:52;14.10;;;4.22;;
28166;SDS011;15455;53.376;-6.262;2023-03-26T19:08:43;10.13;;;3.88;;
28166;SDS011;15455;53.376;-6.262;2023-03-26T19:11:31;19.75;;;7.40;;
28166;SDS011;15455;53.376;-6.262;2023-03-26T19:14:18;20.10;;;4.03;;
28166;SDS011;15455;53.376;-6.262;2023-03-26T19:17:04;13.27;;;3.22;;
28166;SDS011;15455;53.376;-6.262;2023-03-26T19:19:51;13.82;;;2.85;;
28166;SDS011;15455;53.376;-6.262;2023-03-26T19:22:41;8.25;;;2.70;;
28166;SDS011;15455;53.376;-6.262;2023-03-26T19:25:30;12.57;;;2.42;;
28166;SDS011;15455;53.376;-6.262;2023-03-26T19:28:30;10.10;;;2.67;;
28166;SDS011;15455;53.376;-6.262;2023-03-26T19:31:21;7.07;;;2.63;;
28166;SDS011;15455;53.376;-6.262;2023-03-26T19:37:01;5.07;;;1.85;;
28166;SDS011;15455;53.376;-6.262;2023-03-26T19:39:49;8.05;;;2.10;;
28166;SDS011;15455;53.376;-6.262;2023-03-26T19:42:36;7.60;;;2.00;;
28166;SDS011;15455;53.376;-6.262;2023-03-26T19:45:28;6.35;;;1.83;;
28166;SDS011;15455;53.376;-6.262;2023-03-26T19:48:19;9.30;;;1.67;;
28166;SDS011;15455;53.376;-6.262;2023-03-26T19:51:30;6.85;;;1.50;;
28166;SDS011;15455;53.376;-6.262;2023-03-26T19:54:21;8.32;;;1.77;;
28166;SDS011;15455;53.376;-6.262;2023-03-26T19:57:06;4.47;;;1.50;;
28166;SDS011;15455;53.376;-6.262;2023-03-26T19:59:53;11.40;;;1.90;;
28166;SDS011;15455;53.376;-6.262;2023-03-26T20:02:40;5.10;;;2.30;;
28166;SDS011;15455;53.376;-6.262;2023-03-26T20:05:28;5.95;;;2.47;;
28166;SDS011;15455;53.376;-6.262;2023-03-26T20:08:16;11.13;;;2.22;;
28166;SDS011;15455;53.376;-6.262;2023-03-26T20:11:03;11.55;;;3.00;;
28166;SDS011;15455;53.376;-6.262;2023-03-26T20:13:49;6.72;;;2.33;;
28166;SDS011;15455;53.376;-6.262;2023-03-26T20:16:36;7.00;;;2.20;;
28166;SDS011;15455;53.376;-6.262;2023-03-26T20:19:22;6.00;;;2.35;;
28166;SDS011;15455;53.376;-6.262;2023-03-26T20:22:15;8.70;;;2.40;;
28166;SDS011;15455;53.376;-6.262;2023-03-26T20:25:48;10.00;;;2.65;;
28166;SDS011;15455;53.376;-6.262;2023-03-26T20:28:17;13.87;;;4.50;;
28166;SDS011;15455;53.376;-6.262;2023-03-26T20:31:03;16.55;;;7.75;;
28166;SDS011;15455;53.376;-6.262;2023-03-26T20:33:49;13.27;;;6.78;;
28166;SDS011;15455;53.376;-6.262;2023-03-26T20:36:36;19.90;;;7.50;;
28166;SDS011;15455;53.376;-6.262;2023-03-26T20:39:23;7.28;;;3.92;;
28166;SDS011;15455;53.376;-6.262;2023-03-26T20:42:09;4.65;;;2.70;;
28166;SDS011;15455;53.376;-6.262;2023-03-26T20:44:58;7.95;;;3.97;;
28166;SDS011;15455;53.376;-6.262;2023-03-26T20:47:44;13.43;;;3.80;;
28166;SDS011;15455;53.376;-6.262;2023-03-26T20:50:30;9.60;;;3.20;;
28166;SDS011;15455;53.376;-6.262;2023-03-26T20:53:19;10.57;;;3.60;;
28166;SDS011;15455;53.376;-6.262;2023-03-26T20:56:07;9.57;;;2.97;;
28166;SDS011;15455;53.376;-6.262;2023-03-26T20:58:58;7.13;;;2.75;;
28166;SDS011;15455;53.376;-6.262;2023-03-26T21:01:49;7.45;;;3.00;;
28166;SDS011;15455;53.376;-6.262;2023-03-26T21:04:35;9.65;;;2.65;;
28166;SDS011;15455;53.376;-6.262;2023-03-26T21:07:20;15.85;;;3.58;;
28166;SDS011;15455;53.376;-6.262;2023-03-26T21:10:06;9.50;;;2.38;;
28166;SDS011;15455;53.376;-6.262;2023-03-26T21:12:55;6.50;;;2.55;;
28166;SDS011;15455;53.376;-6.262;2023-03-26T21:15:50;4.18;;;2.50;;
28166;SDS011;15455;53.376;-6.262;2023-03-26T21:18:36;13.18;;;3.30;;
28166;SDS011;15455;53.376;-6.262;2023-03-26T21:22:08;13.38;;;3.25;;
28166;SDS011;15455;53.376;-6.262;2023-03-26T21:30:30;13.98;;;4.85;;
28166;SDS011;15455;53.376;-6.262;2023-03-26T21:33:17;22.35;;;6.72;;
28166;SDS011;15455;53.376;-6.262;2023-03-26T21:36:02;37.67;;;19.88;;
28166;SDS011;15455;53.376;-6.262;2023-03-26T21:38:48;17.65;;;7.50;;
28166;SDS011;15455;53.376;-6.262;2023-03-26T21:41:45;19.13;;;5.20;;
28166;SDS011;15455;53.376;-6.262;2023-03-26T21:44:49;10.38;;;5.25;;
28166;SDS011;15455;53.376;-6.262;2023-03-26T21:47:35;9.00;;;4.40;;
28166;SDS011;15455;53.376;-6.262;2023-03-26T21:50:21;10.68;;;4.35;;
28166;SDS011;15455;53.376;-6.262;2023-03-26T21:53:09;8.95;;;4.13;;
28166;SDS011;15455;53.376;-6.262;2023-03-26T21:56:03;13.10;;;5.65;;
28166;SDS011;15455;53.376;-6.262;2023-03-26T22:08:01;10.93;;;4.47;;
28166;SDS011;15455;53.376;-6.262;2023-03-26T22:10:48;11.98;;;4.45;;
28166;SDS011;15455;53.376;-6.262;2023-03-26T22:13:34;9.25;;;3.72;;
28166;SDS011;15455;53.376;-6.262;2023-03-26T22:16:19;11.68;;;4.45;;
28166;SDS011;15455;53.376;-6.262;2023-03-26T22:19:09;13.60;;;4.85;;
28166;SDS011;15455;53.376;-6.262;2023-03-26T22:21:56;6.45;;;3.97;;
28166;SDS011;15455;53.376;-6.262;2023-03-26T22:24:45;7.93;;;4.35;;
28166;SDS011;15455;53.376;-6.262;2023-03-26T22:27:31;7.78;;;4.18;;
28166;SDS011;15455;53.376;-6.262;2023-03-26T22:30:28;17.38;;;5.30;;
28166;SDS011;15455;53.376;-6.262;2023-03-26T22:33:14;18.15;;;5.53;;
28166;SDS011;15455;53.376;-6.262;2023-03-26T22:36:02;12.80;;;5.63;;
28166;SDS011;15455;53.376;-6.262;2023-03-26T22:38:47;18.45;;;6.63;;
28166;SDS011;15455;53.376;-6.262;2023-03-26T22:41:37;18.40;;;6.68;;
28166;SDS011;15455;53.376;-6.262;2023-03-26T22:44:23;15.10;;;6.25;;
28166;SDS011;15455;53.376;-6.262;2023-03-26T22:47:08;20.42;;;6.70;;
28166;SDS011;15455;53.376;-6.262;2023-03-26T22:49:54;9.88;;;5.88;;
28166;SDS011;15455;53.376;-6.262;2023-03-26T22:52:39;15.18;;;5.95;;
28166;SDS011;15455;53.376;-6.262;2023-03-26T22:55:25;15.52;;;6.75;;
28166;SDS011;15455;53.376;-6.262;2023-03-26T22:58:13;10.13;;;5.45;;
28166;SDS011;15455;53.376;-6.262;2023-03-26T23:01:18;13.88;;;7.10;;
28166;SDS011;15455;53.376;-6.262;2023-03-26T23:04:07;13.60;;;5.10;;
28166;SDS011;15455;53.376;-6.262;2023-03-26T23:06:52;12.23;;;5.32;;
28166;SDS011;15455;53.376;-6.262;2023-03-26T23:09:38;10.95;;;5.18;;
28166;SDS011;15455;53.376;-6.262;2023-03-26T23:12:24;13.40;;;6.10;;
28166;SDS011;15455;53.376;-6.262;2023-03-26T23:15:09;13.27;;;5.78;;
28166;SDS011;15455;53.376;-6.262;2023-03-26T23:17:56;10.27;;;5.25;;
28166;SDS011;15455;53.376;-6.262;2023-03-26T23:20:52;11.85;;;5.00;;
28166;SDS011;15455;53.376;-6.262;2023-03-26T23:23:40;11.50;;;5.20;;
28166;SDS011;15455;53.376;-6.262;2023-03-26T23:26:25;11.43;;;5.00;;
28166;SDS011;15455;53.376;-6.262;2023-03-26T23:29:21;15.98;;;5.30;;
28166;SDS011;15455;53.376;-6.262;2023-03-26T23:32:07;7.72;;;4.80;;
28166;SDS011;15455;53.376;-6.262;2023-03-26T23:35:08;11.38;;;4.43;;
28166;SDS011;15455;53.376;-6.262;2023-03-26T23:37:54;11.85;;;4.57;;